Time,TemperatureF,DewpointF,PressureIn,WindDirection,WindDirectionDegrees,WindSpeedMPH,WindSpeedGustMPH,Humidity,HourlyPrecipIn,Conditions,Clouds,dailyrainin,SoftwareType,DateUTC
2013-05-31 10:02:00,79.0,63.0,-100.00,North,10,4.0,-999.0,57,0.00,,,-99.99,,2013-05-31 14:02:00,
2013-05-31 10:11:00,79.0,62.0,-100.00,NNW,345,6.0,12.0,55,0.00,,,-99.99,,2013-05-31 14:11:00,
2013-05-31 10:22:00,80.0,63.0,-100.00,NE,45,3.0,12.0,55,0.00,,,-99.99,,2013-05-31 14:22:00,
2013-05-31 10:32:00,80.0,62.0,-100.00,NNE,25,6.0,11.0,54,0.00,,,-99.99,,2013-05-31 14:32:00,
2013-05-31 10:42:00,80.0,62.0,-100.00,NE,35,8.0,14.0,53,0.00,,,-99.99,,2013-05-31 14:42:00,
2013-05-31 10:52:00,81.0,63.0,-100.00,North,0,7.0,16.0,53,0.00,,,-99.99,,2013-05-31 14:52:00,
2013-05-31 11:01:00,81.0,62.0,-100.00,North,10,6.0,12.0,52,0.00,,,-99.99,,2013-05-31 15:01:00,
2013-05-31 11:11:00,82.0,63.0,-100.00,NE,55,7.0,12.0,53,0.00,,,-99.99,,2013-05-31 15:11:00,
2013-05-31 11:21:00,82.0,63.0,-100.00,NE,40,7.0,12.0,52,0.00,,,-99.99,,2013-05-31 15:21:00,
2013-05-31 11:33:00,83.0,62.0,-100.00,North,0,7.0,12.0,50,0.00,,,-99.99,,2013-05-31 15:33:00,
2013-05-31 11:43:00,83.0,63.0,-100.00,NE,50,6.0,12.0,49,0.00,,,-99.99,,2013-05-31 15:43:00,
2013-05-31 11:53:00,83.0,63.0,-100.00,NNE,25,9.0,16.0,50,0.00,,,-99.99,,2013-05-31 15:53:00,
2013-05-31 12:03:00,83.0,62.0,-100.00,NNE,30,9.0,19.0,49,0.00,,,-99.99,,2013-05-31 16:03:00,
2013-05-31 12:12:00,83.0,63.0,-100.00,ENE,60,7.0,16.0,49,0.00,,,-99.99,,2013-05-31 16:12:00,
2013-05-31 12:22:00,84.0,62.0,-100.00,North,0,9.0,15.0,46,0.00,,,-99.99,,2013-05-31 16:22:00,
2013-05-31 12:33:00,85.0,62.0,-100.00,NE,35,8.0,18.0,45,0.00,,,-99.99,,2013-05-31 16:33:00,
2013-05-31 12:42:00,85.0,62.0,-100.00,NNE,20,7.0,14.0,45,0.00,,,-99.99,,2013-05-31 16:42:00,
2013-05-31 12:52:00,84.0,62.0,-100.00,NE,55,6.0,16.0,46,0.00,,,-99.99,,2013-05-31 16:52:00,
2013-05-31 13:02:00,85.0,62.0,-100.00,NE,35,7.0,13.0,45,0.00,,,-99.99,,2013-05-31 17:02:00,
2013-05-31 13:12:00,85.0,62.0,-100.00,NE,50,9.0,16.0,46,0.00,,,-99.99,,2013-05-31 17:12:00,
2013-05-31 13:22:00,85.0,62.0,-100.00,NNE,25,9.0,16.0,45,0.00,,,-99.99,,2013-05-31 17:22:00,
2013-05-31 13:32:00,85.0,61.0,-100.00,North,10,7.0,14.0,44,0.00,,,-99.99,,2013-05-31 17:32:00,
2013-05-31 13:42:00,86.0,61.0,-100.00,NNE,20,6.0,11.0,43,0.00,,,-99.99,,2013-05-31 17:42:00,
2013-05-31 13:52:00,86.0,61.0,-100.00,NE,50,11.0,16.0,43,0.00,,,-99.99,,2013-05-31 17:52:00,
2013-05-31 14:02:00,86.0,63.0,-100.00,NNW,340,5.0,14.0,45,0.00,,,-99.99,,2013-05-31 18:02:00,
2013-05-31 14:12:00,86.0,61.0,-100.00,NW,320,7.0,16.0,42,0.00,,,-99.99,,2013-05-31 18:12:00,
2013-05-31 14:22:00,86.0,62.0,-100.00,North,5,7.0,14.0,43,0.00,,,-99.99,,2013-05-31 18:22:00,
2013-05-31 14:32:00,86.0,62.0,-100.00,North,0,5.0,12.0,44,0.00,,,-99.99,,2013-05-31 18:32:00,
2013-05-31 14:42:00,87.0,61.0,-100.00,North,0,4.0,14.0,42,0.00,,,-99.99,,2013-05-31 18:42:00,
2013-05-31 14:52:00,87.0,61.0,-100.00,North,10,9.0,18.0,41,0.00,,,-99.99,,2013-05-31 18:52:00,
2013-05-31 15:02:00,87.0,62.0,-100.00,North,350,7.0,16.0,43,0.00,,,-99.99,,2013-05-31 19:02:00,
2013-05-31 15:11:00,87.0,62.0,-100.00,NNW,335,8.0,16.0,42,0.00,,,-99.99,,2013-05-31 19:11:00,
2013-05-31 15:22:00,87.0,60.0,-100.00,North,355,6.0,16.0,41,0.00,,,-99.99,,2013-05-31 19:22:00,
2013-05-31 15:32:00,87.0,60.0,-100.00,North,350,7.0,16.0,41,0.00,,,-99.99,,2013-05-31 19:32:00,
2013-05-31 15:42:00,87.0,60.0,-100.00,NNW,330,8.0,16.0,40,0.00,,,-99.99,,2013-05-31 19:42:00,
2013-05-31 15:52:00,87.0,60.0,-100.00,NE,35,7.0,15.0,40,0.00,,,-99.99,,2013-05-31 19:52:00,
2013-05-31 16:02:00,87.0,60.0,-100.00,North,0,9.0,14.0,39,0.00,,,-99.99,,2013-05-31 20:02:00,
2013-05-31 16:11:00,87.0,59.0,-100.00,North,0,10.0,24.0,39,0.00,,,-99.99,,2013-05-31 20:11:00,
2013-05-31 16:22:00,88.0,60.0,-100.00,NNE,30,6.0,20.0,40,0.00,,,-99.99,,2013-05-31 20:22:00,
2013-05-31 16:32:00,88.0,59.0,-100.00,NNW,335,7.0,17.0,38,0.00,,,-99.99,,2013-05-31 20:32:00,
2013-05-31 16:42:00,88.0,59.0,-100.00,NNE,30,7.0,12.0,38,0.00,,,-99.99,,2013-05-31 20:42:00,
2013-05-31 16:52:00,88.0,60.0,-100.00,NNE,25,7.0,18.0,38,0.00,,,-99.99,,2013-05-31 20:52:00,
2013-05-31 17:01:00,88.0,60.0,-100.00,NE,35,7.0,16.0,38,0.00,,,-99.99,,2013-05-31 21:01:00,
2013-05-31 17:11:00,87.0,59.0,-100.00,North,5,10.0,19.0,38,0.00,,,-99.99,,2013-05-31 21:11:00,
2013-05-31 17:22:00,88.0,60.0,-100.00,NNE,15,7.0,16.0,39,0.00,,,-99.99,,2013-05-31 21:22:00,
2013-05-31 17:33:00,87.0,59.0,-100.00,North,5,8.0,16.0,38,0.00,,,-99.99,,2013-05-31 21:33:00,
2013-05-31 17:43:00,88.0,59.0,-100.00,NE,45,6.0,15.0,38,0.00,,,-99.99,,2013-05-31 21:43:00,
2013-05-31 17:53:00,87.0,59.0,-100.00,NNW,345,7.0,17.0,38,0.00,,,-99.99,,2013-05-31 21:53:00,
2013-05-31 18:02:00,87.0,60.0,-100.00,North,0,7.0,17.0,39,0.00,,,-99.99,,2013-05-31 22:02:00,
2013-05-31 18:12:00,88.0,59.0,-100.00,North,350,7.0,15.0,38,0.00,,,-99.99,,2013-05-31 22:12:00,
2013-05-31 18:22:00,87.0,60.0,-100.00,NNE,30,11.0,17.0,39,0.00,,,-99.99,,2013-05-31 22:22:00,
2013-05-31 18:33:00,87.0,61.0,-100.00,NNE,15,4.0,14.0,40,0.00,,,-99.99,,2013-05-31 22:33:00,
2013-05-31 18:42:00,87.0,58.0,-100.00,North,0,8.0,19.0,37,0.00,,,-99.99,,2013-05-31 22:42:00,
2013-05-31 18:52:00,87.0,59.0,-100.00,NNE,20,5.0,11.0,39,0.00,,,-99.99,,2013-05-31 22:52:00,
2013-05-31 19:02:00,86.0,60.0,-100.00,North,0,6.0,11.0,40,0.00,,,-99.99,,2013-05-31 23:02:00,
2013-05-31 19:12:00,85.0,59.0,-100.00,NW,305,7.0,12.0,41,0.00,,,-99.99,,2013-05-31 23:12:00,
2013-05-31 19:21:00,85.0,58.0,-100.00,NNW,345,7.0,13.0,40,0.00,,,-99.99,,2013-05-31 23:21:00,
2013-05-31 19:32:00,85.0,59.0,-100.00,North,350,4.0,6.0,41,0.00,,,-99.99,,2013-05-31 23:32:00,
2013-05-31 19:42:00,85.0,59.0,-100.00,North,5,4.0,11.0,42,0.00,,,-99.99,,2013-05-31 23:42:00,
2013-05-31 19:52:00,84.0,60.0,-100.00,North,10,3.0,8.0,43,0.00,,,-99.99,,2013-05-31 23:52:00,
2013-05-31 20:01:00,84.0,60.0,-100.00,WNW,300,1.0,4.0,44,0.00,,,-99.99,,2013-06-01 00:01:00,
2013-05-31 20:12:00,83.0,60.0,-100.00,NW,325,2.0,6.0,45,0.00,,,-99.99,,2013-06-01 00:12:00,
2013-05-31 20:22:00,83.0,60.0,-100.00,NW,320,2.0,6.0,46,0.00,,,-99.99,,2013-06-01 00:22:00,
2013-05-31 20:32:00,83.0,60.0,-100.00,NW,315,4.0,6.0,47,0.00,,,-99.99,,2013-06-01 00:32:00,
2013-05-31 20:42:00,82.0,61.0,-100.00,NNW,330,1.0,6.0,48,0.00,,,-99.99,,2013-06-01 00:42:00,
2013-05-31 20:52:00,82.0,61.0,-100.00,NW,315,2.0,4.0,48,0.00,,,-99.99,,2013-06-01 00:52:00,
2013-05-31 21:01:00,82.0,61.0,-100.00,NW,325,2.0,6.0,49,0.00,,,-99.99,,2013-06-01 01:01:00,
2013-05-31 21:11:00,81.0,61.0,-100.00,NW,325,2.0,6.0,49,0.00,,,-99.99,,2013-06-01 01:11:00,
2013-05-31 21:22:00,81.0,62.0,-100.00,WSW,250,1.0,6.0,52,0.00,,,-99.99,,2013-06-01 01:22:00,
2013-05-31 21:32:00,78.0,62.0,-100.00,ENE,70,11.0,22.0,59,0.00,,,-99.99,,2013-06-01 01:32:00,
2013-05-31 21:42:00,75.0,62.0,-100.00,NE,45,16.0,29.0,64,0.00,,,-99.99,,2013-06-01 01:42:00,
2013-05-31 21:52:00,73.0,63.0,-100.00,NE,55,14.0,29.0,69,1.69,,,-99.99,,2013-06-01 01:52:00,
2013-05-31 22:02:00,70.0,64.0,-100.00,NE,50,12.0,23.0,80,5.67,,,-99.99,,2013-06-01 02:02:00,
2013-05-31 22:12:00,69.0,65.0,-100.00,NNE,30,9.0,16.0,86,0.00,,,-99.99,,2013-06-01 02:12:00,
2013-05-31 22:21:00,69.0,65.0,-100.00,ENE,60,3.0,17.0,88,2.24,,,-99.99,,2013-06-01 02:21:00,
2013-05-31 22:32:00,68.0,65.0,-100.00,NNE,25,6.0,11.0,90,3.94,,,-99.99,,2013-06-01 02:32:00,
2013-05-31 22:42:00,68.0,66.0,-100.00,NNE,15,3.0,9.0,92,0.00,,,-99.99,,2013-06-01 02:42:00,
2013-05-31 22:52:00,68.0,66.0,-100.00,ENE,65,3.0,9.0,92,0.00,,,-99.99,,2013-06-01 02:52:00,
2013-05-31 23:02:00,68.0,66.0,-100.00,ESE,110,1.0,3.0,93,0.55,,,-99.99,,2013-06-01 03:02:00,
2013-05-31 23:11:00,68.0,66.0,-100.00,East,95,0.0,3.0,92,0.00,,,-99.99,,2013-06-01 03:11:00,
2013-05-31 23:21:00,67.0,65.0,-100.00,SW,230,2.0,2.0,93,0.00,,,-99.99,,2013-06-01 03:21:00,
2013-05-31 23:33:00,67.0,65.0,-100.00,SW,230,1.0,3.0,94,0.00,,,-99.99,,2013-06-01 03:33:00,
2013-05-31 23:43:00,67.0,65.0,-100.00,WSW,255,4.0,5.0,94,0.00,,,-99.99,,2013-06-01 03:43:00,
2013-05-31 23:53:00,67.0,65.0,-100.00,NW,310,2.0,7.0,95,0.00,,,-99.99,,2013-06-01 03:53:00,